createdAt,value
2022-09-24T00:02:20.055Z,13.10
2022-09-24T00:04:48.978Z,13.10
2022-09-24T00:07:18.994Z,13.20
2022-09-24T00:09:48.465Z,13.30
2022-09-24T00:12:19.139Z,13.30
2022-09-24T00:14:47.859Z,13.40
2022-09-24T00:17:16.878Z,13.50
2022-09-24T00:19:46.400Z,13.50
2022-09-24T00:22:15.013Z,13.60
2022-09-24T00:25:02.953Z,13.60
2022-09-24T00:27:31.617Z,13.50
2022-09-24T00:30:00.246Z,13.40
2022-09-24T00:32:29.042Z,13.30
2022-09-24T00:34:58.587Z,13.20
2022-09-24T00:37:29.835Z,13.00
2022-09-24T00:40:00.031Z,12.90
2022-09-24T00:42:29.740Z,12.90
2022-09-24T00:44:58.486Z,12.80
2022-09-24T00:47:40.752Z,12.70
2022-09-24T00:50:20.351Z,12.70
2022-09-24T00:52:53.304Z,12.70
2022-09-24T00:55:25.215Z,12.70
2022-09-24T00:57:58.632Z,12.70
2022-09-24T01:00:28.146Z,12.70
2022-09-24T01:03:03.365Z,12.70
2022-09-24T01:05:32.795Z,12.60
2022-09-24T01:08:02.854Z,12.60
2022-09-24T01:10:49.331Z,12.60
2022-09-24T01:13:43.419Z,12.60
2022-09-24T01:16:17.438Z,12.50
2022-09-24T01:18:52.798Z,12.50
2022-09-24T01:21:29.052Z,12.50
2022-09-24T01:24:14.921Z,12.40
2022-09-24T01:27:07.212Z,12.50
2022-09-24T01:29:52.582Z,12.50
2022-09-24T01:32:32.465Z,12.50
2022-09-24T01:35:04.652Z,12.50
2022-09-24T01:37:36.483Z,12.40
2022-09-24T01:40:07.913Z,12.50
2022-09-24T01:42:39.534Z,12.50
2022-09-24T01:45:12.228Z,12.50
2022-09-24T01:47:42.956Z,12.50
2022-09-24T01:50:13.976Z,12.60
2022-09-24T01:52:48.328Z,12.60
